createdAt,value
2024-04-14T00:00:08.080Z,100599.57
2024-04-14T00:02:11.208Z,100598.41
2024-04-14T00:04:14.534Z,100601.23
2024-04-14T00:06:17.699Z,100600.18
2024-04-14T00:08:20.824Z,100600.48
2024-04-14T00:10:23.878Z,100594.49
2024-04-14T00:12:27.060Z,100597.54
2024-04-14T00:14:30.185Z,100595.65
2024-04-14T00:16:33.343Z,100590.54
2024-04-14T00:18:36.549Z,100587.88
2024-04-14T00:20:39.914Z,100581.85
2024-04-14T00:22:43.027Z,100584.59
2024-04-14T00:24:46.232Z,100580.88
2024-04-14T00:26:51.613Z,100578.96
2024-04-14T00:28:54.783Z,100577.66
2024-04-14T00:30:57.890Z,100575.98
2024-04-14T00:33:01.168Z,100570.02
2024-04-14T00:35:04.726Z,100564.60
2024-04-14T00:37:07.824Z,100566.57
2024-04-14T00:39:14.171Z,100565.80
2024-04-14T00:41:17.530Z,100558.81
2024-04-14T00:43:20.971Z,100562.88
2024-04-14T00:45:24.072Z,100563.96
2024-04-14T00:47:27.974Z,100559.98
2024-04-14T00:49:32.756Z,100557.97
2024-04-14T00:51:37.480Z,100556.02
2024-04-14T00:53:41.178Z,100557.42
2024-04-14T00:55:47.463Z,100560.68
2024-04-14T00:57:50.926Z,100567.44
2024-04-14T00:59:55.421Z,100567.29
2024-04-14T01:01:58.530Z,100563.01
2024-04-14T01:04:01.781Z,100567.06
2024-04-14T01:06:05.183Z,100560.27
2024-04-14T01:08:08.953Z,100559.17
2024-04-14T01:10:12.569Z,100562.83
2024-04-14T01:12:15.722Z,100557.92
2024-04-14T01:14:19.926Z,100555.71
2024-04-14T01:16:23.047Z,100551.33
2024-04-14T01:18:26.225Z,100549.19
2024-04-14T01:20:30.122Z,100548.98
2024-04-14T01:22:33.212Z,100550.30
2024-04-14T01:24:36.355Z,100554.93
2024-04-14T01:26:39.620Z,100548.83
2024-04-14T01:28:42.695Z,100545.07
2024-04-14T01:30:46.060Z,100541.47
2024-04-14T01:32:49.202Z,100540.83
2024-04-14T01:34:52.328Z,100536.15
2024-04-14T01:36:55.455Z,100533.71
2024-04-14T01:38:58.552Z,100529.77
2024-04-14T01:41:02.819Z,100531.93
2024-04-14T01:43:06.061Z,100529.48
2024-04-14T01:45:12.311Z,100532.15
2024-04-14T01:47:15.421Z,100531.45
2024-04-14T01:49:18.554Z,100534.55
2024-04-14T01:51:21.710Z,100530.54
2024-04-14T01:53:24.824Z,100530.82
2024-04-14T01:55:27.924Z,100529.14
2024-04-14T01:57:31.115Z,100524.18
2024-04-14T01:59:35.800Z,100528.91
2024-04-14T02:01:38.908Z,100527.18
2024-04-14T02:03:44.061Z,100523.76
2024-04-14T02:05:47.247Z,100526.76
2024-04-14T02:07:50.307Z,100523.42
2024-04-14T02:09:53.468Z,100523.87
2024-04-14T02:11:56.608Z,100522.23
2024-04-14T02:14:00.423Z,100527.25
2024-04-14T02:16:04.279Z,100529.32
2024-04-14T02:18:07.696Z,100527.64
2024-04-14T02:20:13.811Z,100530.45
2024-04-14T02:22:16.866Z,100524.33
2024-04-14T02:24:19.942Z,100524.88
2024-04-14T02:26:23.165Z,100523.02
2024-04-14T02:28:26.385Z,100522.15
2024-04-14T02:30:29.580Z,100523.65
2024-04-14T02:32:32.712Z,100529.19
2024-04-14T02:34:35.839Z,100534.80
2024-04-14T02:36:38.910Z,100532.44
2024-04-14T02:38:42.026Z,100533.48
2024-04-14T02:40:45.111Z,100531.11
2024-04-14T02:42:48.251Z,100533.16
2024-04-14T02:44:51.396Z,100532.13
2024-04-14T02:46:54.503Z,100529.14
2024-04-14T02:48:57.694Z,100530.41
2024-04-14T02:51:00.875Z,100524.87
2024-04-14T02:53:03.942Z,100522.87
2024-04-14T02:55:07.889Z,100523.52
2024-04-14T02:57:11.022Z,100527.30
2024-04-14T02:59:14.089Z,100527.73
2024-04-14T03:01:19.229Z,100527.41
2024-04-14T03:03:22.454Z,100531.05
2024-04-14T03:05:25.639Z,100529.10
2024-04-14T03:07:30.459Z,100529.77
2024-04-14T03:09:33.562Z,100525.76
2024-04-14T03:11:36.644Z,100529.14
2024-04-14T03:13:39.814Z,100527.41
2024-04-14T03:15:42.926Z,100529.59
2024-04-14T03:17:46.146Z,100526.83
2024-04-14T03:19:54.450Z,100530.09
2024-04-14T03:21:57.583Z,100528.73
2024-04-14T03:24:00.722Z,100530.60
2024-04-14T03:26:03.817Z,100528.88
2024-04-14T03:28:10.266Z,100528.92
2024-04-14T03:30:13.930Z,100530.48
2024-04-14T03:32:17.114Z,100525.13
2024-04-14T03:34:20.212Z,100521.24
2024-04-14T03:36:23.924Z,100516.37
2024-04-14T03:38:27.040Z,100512.86
2024-04-14T03:40:30.096Z,100512.49
2024-04-14T03:42:36.302Z,100513.78
2024-04-14T03:44:39.392Z,100512.38
2024-04-14T03:46:42.449Z,100515.30
2024-04-14T03:48:45.707Z,100514.76
2024-04-14T03:50:49.032Z,100513.77
2024-04-14T03:52:52.183Z,100514.70
2024-04-14T03:54:55.378Z,100514.30
2024-04-14T03:56:58.504Z,100514.48
2024-04-14T03:59:01.618Z,100521.41
2024-04-14T04:01:04.783Z,100522.68
2024-04-14T04:03:08.448Z,100527.91
2024-04-14T04:05:11.506Z,100525.21
2024-04-14T04:07:14.626Z,100530.56
2024-04-14T04:09:17.737Z,100531.20
2024-04-14T04:11:20.875Z,100529.31
2024-04-14T04:13:23.966Z,100530.63
2024-04-14T04:15:27.055Z,100528.41
2024-04-14T04:17:30.221Z,100531.56
2024-04-14T04:19:33.404Z,100532.87
2024-04-14T04:21:36.597Z,100531.05
2024-04-14T04:23:39.796Z,100531.40
2024-04-14T04:25:42.856Z,100533.82
2024-04-14T04:27:45.970Z,100539.17
2024-04-14T04:29:49.192Z,100535.33
2024-04-14T04:31:52.267Z,100536.62
2024-04-14T04:33:55.488Z,100538.52
2024-04-14T04:36:00.317Z,100538.78
2024-04-14T04:38:03.408Z,100536.22
2024-04-14T04:40:06.769Z,100539.95
2024-04-14T04:42:09.871Z,100536.89
2024-04-14T04:44:13.729Z,100538.90
2024-04-14T04:46:16.826Z,100543.36
2024-04-14T04:48:20.229Z,100551.68
2024-04-14T04:50:23.496Z,100552.26
2024-04-14T04:52:26.578Z,100554.31
2024-04-14T04:54:29.704Z,100552.96
2024-04-14T04:56:32.779Z,100558.27
2024-04-14T04:58:35.847Z,100557.86
2024-04-14T05:00:39.398Z,100561.73
2024-04-14T05:02:42.674Z,100560.35
2024-04-14T05:04:45.783Z,100560.11
2024-04-14T05:06:48.987Z,100553.99
2024-04-14T05:08:52.433Z,100558.36
2024-04-14T05:10:56.598Z,100559.84
2024-04-14T05:12:59.780Z,100560.41
2024-04-14T05:15:06.886Z,100554.66
2024-04-14T05:17:09.990Z,100558.88
2024-04-14T05:19:13.168Z,100557.75
2024-04-14T05:21:16.285Z,100564.17
2024-04-14T05:23:19.390Z,100563.62
2024-04-14T05:25:22.455Z,100558.33
2024-04-14T05:27:25.544Z,100564.14
2024-04-14T05:29:29.879Z,100563.68
2024-04-14T05:31:33.664Z,100563.59
2024-04-14T05:33:37.034Z,100567.55
2024-04-14T05:35:40.229Z,100568.67
2024-04-14T05:37:43.320Z,100573.97
2024-04-14T05:39:46.466Z,100573.38
2024-04-14T05:41:49.626Z,100576.17
2024-04-14T05:43:52.700Z,100581.68
2024-04-14T05:45:56.276Z,100582.02
2024-04-14T05:47:59.467Z,100584.77
2024-04-14T05:50:02.842Z,100585.47
2024-04-14T05:52:07.321Z,100590.20
2024-04-14T05:54:10.470Z,100591.01
2024-04-14T05:56:13.666Z,100593.42
2024-04-14T05:58:16.810Z,100592.77
2024-04-14T06:00:19.902Z,100591.60
2024-04-14T06:02:23.033Z,100592.05
2024-04-14T06:04:26.338Z,100593.18
2024-04-14T06:06:29.620Z,100589.35
2024-04-14T06:08:32.776Z,100594.34
2024-04-14T06:10:35.839Z,100597.19
2024-04-14T06:12:39.059Z,100597.34
2024-04-14T06:14:42.201Z,100597.41
2024-04-14T06:16:45.402Z,100595.71
2024-04-14T06:18:48.580Z,100595.29
2024-04-14T06:20:51.766Z,100597.67
2024-04-14T06:22:54.855Z,100603.09
2024-04-14T06:24:58.026Z,100603.97
2024-04-14T06:27:01.222Z,100602.40
2024-04-14T06:29:04.314Z,100601.70
2024-04-14T06:31:07.488Z,100597.31
2024-04-14T06:33:10.641Z,100598.84
2024-04-14T06:35:13.725Z,100595.74
2024-04-14T06:37:17.262Z,100593.25
2024-04-14T06:39:20.346Z,100597.05
2024-04-14T06:41:23.451Z,100593.27
2024-04-14T06:43:26.514Z,100590.29
2024-04-14T06:45:29.612Z,100591.54
2024-04-14T06:47:35.041Z,100583.89
2024-04-14T06:49:38.535Z,100587.38
2024-04-14T06:51:41.653Z,100591.87
2024-04-14T06:53:44.738Z,100592.87
2024-04-14T06:55:48.441Z,100588.43
2024-04-14T06:57:51.596Z,100587.74
2024-04-14T06:59:54.692Z,100587.41
2024-04-14T07:01:58.018Z,100580.63
2024-04-14T07:04:01.384Z,100583.11
2024-04-14T07:06:05.073Z,100584.05
2024-04-14T07:08:08.387Z,100581.88
2024-04-14T07:10:11.614Z,100584.49
2024-04-14T07:12:14.703Z,100586.45
2024-04-14T07:14:17.878Z,100580.49
2024-04-14T07:16:21.118Z,100578.27
2024-04-14T07:18:24.295Z,100580.54
2024-04-14T07:20:27.384Z,100582.23
2024-04-14T07:22:30.474Z,100582.70
2024-04-14T07:25:04.789Z,100582.63
2024-04-14T07:27:09.070Z,100577.09
2024-04-14T07:29:12.164Z,100587.83
2024-04-14T07:31:15.273Z,100587.38
2024-04-14T07:33:18.419Z,100585.89
2024-04-14T07:35:21.548Z,100584.23
2024-04-14T07:37:24.648Z,100581.49
2024-04-14T07:39:27.771Z,100582.99
2024-04-14T07:41:32.366Z,100582.87
2024-04-14T07:43:35.510Z,100580.19
2024-04-14T07:45:38.602Z,100584.04
2024-04-14T07:47:44.542Z,100586.30
2024-04-14T07:49:48.045Z,100584.13
2024-04-14T07:51:51.442Z,100584.96
2024-04-14T07:53:54.609Z,100579.38
2024-04-14T07:55:57.894Z,100580.76
2024-04-14T07:58:01.378Z,100580.42
2024-04-14T08:00:06.206Z,100581.45
2024-04-14T08:02:09.440Z,100579.99
2024-04-14T08:04:12.626Z,100583.49
2024-04-14T08:06:15.814Z,100582.68
2024-04-14T08:08:19.090Z,100586.32
2024-04-14T08:10:22.150Z,100585.84
2024-04-14T08:12:27.233Z,100583.31
2024-04-14T08:14:30.495Z,100579.83
2024-04-14T08:16:33.652Z,100585.94
2024-04-14T08:18:36.859Z,100578.08
2024-04-14T08:20:42.214Z,100580.53
2024-04-14T08:22:45.261Z,100575.59
2024-04-14T08:24:48.360Z,100579.55
2024-04-14T08:26:51.486Z,100577.11
2024-04-14T08:28:54.559Z,100585.08
2024-04-14T08:30:57.755Z,100580.05
2024-04-14T08:33:00.971Z,100585.81
2024-04-14T08:35:05.938Z,100581.85
2024-04-14T08:37:09.071Z,100577.79
2024-04-14T08:39:12.148Z,100573.48
2024-04-14T08:41:20.151Z,100572.17
2024-04-14T08:43:24.078Z,100580.66
2024-04-14T08:45:29.710Z,100581.56
2024-04-14T08:47:34.515Z,100582.64
2024-04-14T08:49:39.885Z,100582.20
2024-04-14T08:51:43.807Z,100581.54
2024-04-14T08:53:48.140Z,100586.64
2024-04-14T08:55:51.254Z,100585.95
2024-04-14T08:57:54.366Z,100585.21
2024-04-14T09:00:01.582Z,100579.76
2024-04-14T09:02:04.787Z,100586.00
2024-04-14T09:04:08.562Z,100584.05
2024-04-14T09:06:14.921Z,100583.26
2024-04-14T09:08:18.132Z,100585.09
2024-04-14T09:10:21.216Z,100589.64
2024-04-14T09:12:26.589Z,100585.97
2024-04-14T09:14:29.675Z,100587.03
2024-04-14T09:16:32.964Z,100586.81
2024-04-14T09:18:38.501Z,100588.79
2024-04-14T09:20:41.593Z,100588.15
2024-04-14T09:22:46.981Z,100586.85
2024-04-14T09:24:50.093Z,100584.77
2024-04-14T09:26:53.246Z,100587.85
2024-04-14T09:29:10.279Z,100587.77
2024-04-14T09:31:13.709Z,100582.51
2024-04-14T09:33:17.221Z,100578.52
2024-04-14T09:35:21.215Z,100582.77
2024-04-14T09:37:24.494Z,100584.13
2024-04-14T09:39:29.798Z,100584.29
2024-04-14T09:41:33.956Z,100589.04
2024-04-14T09:43:38.391Z,100588.25
2024-04-14T09:45:42.690Z,100586.04
2024-04-14T09:47:46.305Z,100586.78
2024-04-14T09:49:50.414Z,100581.55
2024-04-14T09:51:55.260Z,100585.41
2024-04-14T09:54:01.157Z,100583.52
2024-04-14T09:56:05.305Z,100583.90
2024-04-14T09:58:08.398Z,100578.30
2024-04-14T10:00:12.724Z,100574.19
2024-04-14T10:02:27.611Z,100579.10
2024-04-14T10:04:31.864Z,100580.55
2024-04-14T10:06:38.991Z,100576.81
2024-04-14T10:08:42.453Z,100572.73
2024-04-14T10:10:45.904Z,100573.05
2024-04-14T10:12:49.172Z,100573.92
2024-04-14T10:14:56.362Z,100568.02
2024-04-14T10:17:01.646Z,100561.93
2024-04-14T10:19:06.876Z,100556.59
2024-04-14T10:21:10.182Z,100556.98
2024-04-14T10:23:21.070Z,100561.30
2024-04-14T10:25:27.767Z,100556.64
2024-04-14T10:27:36.332Z,100557.29
2024-04-14T10:29:41.146Z,100555.38
2024-04-14T10:31:44.247Z,100558.52
2024-04-14T10:33:47.455Z,100559.34
2024-04-14T10:36:06.251Z,100560.80
2024-04-14T10:38:09.373Z,100554.68
2024-04-14T10:40:15.077Z,100551.60
2024-04-14T10:42:19.376Z,100554.52
2024-04-14T10:44:25.476Z,100555.01
2024-04-14T10:46:28.917Z,100554.52
2024-04-14T10:48:33.906Z,100555.88
2024-04-14T10:50:37.056Z,100552.40
2024-04-14T10:52:40.148Z,100552.22
2024-04-14T10:54:43.361Z,100551.18
2024-04-14T10:56:48.730Z,100541.02
2024-04-14T10:58:52.208Z,100540.31
2024-04-14T11:00:55.364Z,100540.67
2024-04-14T11:03:00.622Z,100544.45
2024-04-14T11:05:05.012Z,100537.53
2024-04-14T11:07:08.717Z,100531.66
2024-04-14T11:09:15.838Z,100526.20
2024-04-14T11:11:20.050Z,100525.88
2024-04-14T11:13:27.345Z,100526.18
2024-04-14T11:15:30.534Z,100522.45
2024-04-14T11:17:34.176Z,100517.90
2024-04-14T11:19:38.673Z,100515.95
2024-04-14T11:21:42.170Z,100515.20
2024-04-14T11:23:50.311Z,100514.89
2024-04-14T11:25:53.358Z,100511.88
2024-04-14T11:27:57.659Z,100511.33
2024-04-14T11:30:00.813Z,100507.66
2024-04-14T11:32:28.550Z,100502.82
2024-04-14T11:34:31.740Z,100496.07
2024-04-14T11:36:35.651Z,100499.13
2024-04-14T11:38:39.531Z,100495.46
2024-04-14T11:40:42.674Z,100494.59
2024-04-14T11:42:45.833Z,100501.34
2024-04-14T11:44:49.056Z,100493.81
2024-04-14T11:46:54.221Z,100490.16
2024-04-14T11:48:57.365Z,100500.97
2024-04-14T11:51:00.908Z,100491.77
2024-04-14T11:53:04.024Z,100486.32
2024-04-14T11:55:10.330Z,100485.04
2024-04-14T11:57:13.469Z,100483.91
2024-04-14T11:59:16.602Z,100485.30
2024-04-14T12:01:19.960Z,100488.42
2024-04-14T12:03:23.399Z,100490.41
2024-04-14T12:05:26.468Z,100490.88
2024-04-14T12:07:29.569Z,100487.06
2024-04-14T12:09:32.719Z,100472.22
2024-04-14T12:11:35.916Z,100458.77
2024-04-14T12:13:39.083Z,100471.88
2024-04-14T12:15:42.237Z,100474.47
2024-04-14T12:17:45.333Z,100474.71
2024-04-14T12:19:50.025Z,100471.98
2024-04-14T12:21:53.312Z,100463.12
2024-04-14T12:23:56.423Z,100470.41
2024-04-14T12:25:59.570Z,100468.59
2024-04-14T12:28:02.820Z,100457.48
2024-04-14T12:30:22.983Z,100463.94
2024-04-14T12:32:30.244Z,100458.84
2024-04-14T12:34:34.103Z,100472.98
2024-04-14T12:36:37.271Z,100468.52
2024-04-14T12:38:40.558Z,100460.90
2024-04-14T12:40:43.700Z,100456.31
2024-04-14T12:42:47.296Z,100446.91
2024-04-14T12:44:50.525Z,100451.05
2024-04-14T12:46:53.734Z,100460.88
2024-04-14T12:48:56.939Z,100458.48
2024-04-14T12:51:00.062Z,100447.66
2024-04-14T12:53:03.230Z,100443.70
2024-04-14T12:55:06.485Z,100439.21
2024-04-14T12:57:10.379Z,100435.65
2024-04-14T12:59:13.485Z,100440.30
2024-04-14T13:01:16.739Z,100430.67
2024-04-14T13:03:19.887Z,100420.29
2024-04-14T13:05:22.968Z,100418.70
2024-04-14T13:07:26.063Z,100420.21
2024-04-14T13:09:29.228Z,100420.67
2024-04-14T13:11:32.413Z,100412.63
2024-04-14T13:13:35.556Z,100406.49
2024-04-14T13:15:38.868Z,100411.43
2024-04-14T13:17:42.198Z,100405.01
2024-04-14T13:19:45.307Z,100401.06
2024-04-14T13:21:48.472Z,100398.01
2024-04-14T13:23:51.611Z,100397.10
2024-04-14T13:25:54.702Z,100386.63
2024-04-14T13:27:57.838Z,100389.59
2024-04-14T13:30:02.514Z,100393.78
2024-04-14T13:32:06.223Z,100386.89
2024-04-14T13:34:09.321Z,100377.62
2024-04-14T13:36:12.443Z,100382.98
2024-04-14T13:38:15.697Z,100387.84
2024-04-14T13:40:19.041Z,100382.67
2024-04-14T13:42:22.148Z,100372.01
2024-04-14T13:44:26.217Z,100374.23
2024-04-14T13:46:29.716Z,100373.74
2024-04-14T13:48:34.543Z,100371.85
2024-04-14T13:50:37.624Z,100370.33
2024-04-14T13:52:40.718Z,100369.71
2024-04-14T13:54:43.917Z,100364.52
2024-04-14T13:56:47.020Z,100359.32
2024-04-14T13:58:50.137Z,100353.66
2024-04-14T14:00:54.550Z,100354.20
2024-04-14T14:02:57.724Z,100356.34
2024-04-14T14:05:00.805Z,100347.88
2024-04-14T14:07:03.961Z,100341.00
2024-04-14T14:09:07.319Z,100341.47
2024-04-14T14:11:10.581Z,100338.37
2024-04-14T14:13:14.674Z,100338.00
2024-04-14T14:15:17.812Z,100329.27
2024-04-14T14:17:20.923Z,100332.59
2024-04-14T14:19:26.857Z,100325.27
2024-04-14T14:21:31.631Z,100326.95
2024-04-14T14:23:35.247Z,100324.02
2024-04-14T14:25:38.847Z,100325.56
2024-04-14T14:27:41.993Z,100320.98
2024-04-14T14:29:46.303Z,100319.98
2024-04-14T14:31:49.418Z,100319.82
2024-04-14T14:34:11.907Z,100315.82
2024-04-14T14:36:28.491Z,100318.88
2024-04-14T14:38:37.914Z,100314.96
2024-04-14T14:40:43.184Z,100313.91
2024-04-14T14:42:46.350Z,100313.68
2024-04-14T14:44:49.844Z,100307.91
2024-04-14T14:46:52.914Z,100311.63
2024-04-14T14:48:59.174Z,100307.01
2024-04-14T14:51:04.148Z,100309.73
2024-04-14T14:53:09.487Z,100304.77
2024-04-14T14:55:12.646Z,100302.99
2024-04-14T14:57:15.775Z,100301.80
2024-04-14T14:59:18.909Z,100297.27
2024-04-14T15:01:22.429Z,100292.83
2024-04-14T15:03:27.003Z,100285.79
2024-04-14T15:05:30.096Z,100288.16
2024-04-14T15:07:33.238Z,100289.25
2024-04-14T15:09:36.361Z,100288.84
2024-04-14T15:11:39.434Z,100284.90
2024-04-14T15:13:42.556Z,100283.33
2024-04-14T15:15:59.729Z,100279.88
2024-04-14T15:18:02.931Z,100276.73
2024-04-14T15:20:07.349Z,100277.38
2024-04-14T15:22:10.604Z,100273.15
2024-04-14T15:24:13.776Z,100276.98
2024-04-14T15:26:16.865Z,100273.94
2024-04-14T15:28:25.415Z,100273.38
2024-04-14T15:30:33.578Z,100264.96
2024-04-14T15:32:38.832Z,100263.89
2024-04-14T15:34:41.946Z,100261.38
2024-04-14T15:36:45.065Z,100262.30
2024-04-14T15:38:48.211Z,100258.57
2024-04-14T15:40:52.205Z,100249.08
2024-04-14T15:42:55.682Z,100248.44
2024-04-14T15:44:58.802Z,100248.30
2024-04-14T15:47:02.012Z,100250.45
2024-04-14T15:49:05.212Z,100249.38
2024-04-14T15:51:17.676Z,100245.36
2024-04-14T15:53:23.379Z,100241.90
2024-04-14T15:55:27.930Z,100233.11
2024-04-14T15:57:35.869Z,100236.63
2024-04-14T15:59:39.631Z,100233.23
2024-04-14T16:01:45.232Z,100228.85
2024-04-14T16:03:48.521Z,100223.81
2024-04-14T16:05:58.742Z,100227.23
2024-04-14T16:08:01.931Z,100226.88
2024-04-14T16:10:05.626Z,100220.14
2024-04-14T16:12:08.736Z,100219.74
2024-04-14T16:14:12.393Z,100218.55
2024-04-14T16:16:16.698Z,100206.59
2024-04-14T16:18:20.492Z,100208.35
2024-04-14T16:20:23.633Z,100206.21
2024-04-14T16:22:26.729Z,100203.59
2024-04-14T16:24:29.930Z,100203.59
2024-04-14T16:26:33.056Z,100196.55
2024-04-14T16:28:36.223Z,100195.89
2024-04-14T16:30:39.378Z,100197.30
2024-04-14T16:32:42.861Z,100198.66
2024-04-14T16:34:46.054Z,100196.30
2024-04-14T16:36:49.237Z,100187.20
2024-04-14T16:38:52.400Z,100189.15
2024-04-14T16:40:56.768Z,100192.40
2024-04-14T16:42:59.853Z,100192.94
2024-04-14T16:45:03.009Z,100189.34
2024-04-14T16:47:06.135Z,100189.01
2024-04-14T16:49:09.402Z,100189.37
2024-04-14T16:51:12.640Z,100183.73
2024-04-14T16:53:15.772Z,100185.82
2024-04-14T16:55:19.784Z,100183.52
2024-04-14T16:57:22.987Z,100182.09
2024-04-14T16:59:26.085Z,100180.78
2024-04-14T17:01:29.542Z,100182.08
2024-04-14T17:03:32.768Z,100179.71
2024-04-14T17:05:35.943Z,100180.77
2024-04-14T17:07:39.038Z,100174.73
2024-04-14T17:09:42.222Z,100173.51
2024-04-14T17:11:45.346Z,100170.17
2024-04-14T17:13:48.460Z,100165.67
2024-04-14T17:15:51.798Z,100167.98
2024-04-14T17:17:55.158Z,100166.85
2024-04-14T17:19:58.339Z,100167.92
2024-04-14T17:22:01.468Z,100169.91
2024-04-14T17:24:04.619Z,100166.64
2024-04-14T17:26:07.791Z,100169.45
2024-04-14T17:28:10.940Z,100170.88
2024-04-14T17:30:14.098Z,100166.33
2024-04-14T17:32:18.646Z,100164.23
2024-04-14T17:34:22.189Z,100166.24
2024-04-14T17:36:27.035Z,100162.60
2024-04-14T17:38:30.136Z,100158.16
2024-04-14T17:40:33.251Z,100156.45
2024-04-14T17:42:36.376Z,100150.91
2024-04-14T17:44:40.248Z,100146.03
2024-04-14T17:46:43.335Z,100152.03
2024-04-14T17:48:46.470Z,100145.30
2024-04-14T17:50:50.819Z,100148.27
2024-04-14T17:52:53.889Z,100149.46
2024-04-14T17:54:57.017Z,100154.59
2024-04-14T17:57:00.963Z,100153.52
2024-04-14T17:59:08.598Z,100151.66
2024-04-14T18:01:12.319Z,100151.95
2024-04-14T18:03:15.529Z,100149.35
2024-04-14T18:05:18.666Z,100148.79
2024-04-14T18:07:21.748Z,100145.68
2024-04-14T18:09:24.879Z,100142.85
2024-04-14T18:11:28.058Z,100143.68
2024-04-14T18:13:31.222Z,100143.44
2024-04-14T18:15:35.397Z,100145.24
2024-04-14T18:17:38.534Z,100140.31
2024-04-14T18:19:41.695Z,100138.12
2024-04-14T18:21:44.808Z,100141.87
2024-04-14T18:23:47.963Z,100144.02
2024-04-14T18:25:51.180Z,100144.02
2024-04-14T18:27:54.300Z,100141.53
2024-04-14T18:29:57.473Z,100141.41
2024-04-14T18:32:00.709Z,100142.74
2024-04-14T18:34:03.944Z,100140.59
2024-04-14T18:36:14.621Z,100139.98
2024-04-14T18:38:21.947Z,100138.97
2024-04-14T18:40:25.035Z,100143.80
2024-04-14T18:42:28.975Z,100143.78
2024-04-14T18:44:32.085Z,100145.24
2024-04-14T18:46:35.208Z,100146.17
2024-04-14T18:48:41.244Z,100149.51
2024-04-14T18:50:44.451Z,100148.27
2024-04-14T18:52:47.561Z,100151.03
2024-04-14T18:54:50.685Z,100152.38
2024-04-14T18:56:54.191Z,100152.36
2024-04-14T18:58:57.448Z,100148.98
2024-04-14T19:01:00.890Z,100148.41
2024-04-14T19:03:03.999Z,100146.44
2024-04-14T19:05:07.521Z,100151.14
2024-04-14T19:07:10.716Z,100153.69
2024-04-14T19:09:14.315Z,100151.51
2024-04-14T19:11:17.518Z,100148.31
2024-04-14T19:13:20.654Z,100149.41
2024-04-14T19:15:23.818Z,100151.29
2024-04-14T19:17:29.257Z,100150.36
2024-04-14T19:19:32.409Z,100144.52
2024-04-14T19:21:35.550Z,100147.35
2024-04-14T19:23:38.701Z,100147.05
2024-04-14T19:25:41.772Z,100149.04
2024-04-14T19:27:44.940Z,100151.70
2024-04-14T19:29:48.014Z,100142.17
2024-04-14T19:31:51.201Z,100148.44
2024-04-14T19:33:54.484Z,100148.54
2024-04-14T19:35:58.598Z,100147.78
2024-04-14T19:38:02.048Z,100152.58
2024-04-14T19:40:08.715Z,100150.01
2024-04-14T19:42:12.056Z,100154.20
2024-04-14T19:44:15.206Z,100145.71
2024-04-14T19:46:18.311Z,100137.23
2024-04-14T19:48:21.487Z,100141.55
2024-04-14T19:50:24.916Z,100136.47
2024-04-14T19:52:28.138Z,100133.56
2024-04-14T19:54:31.298Z,100132.29
2024-04-14T19:56:34.380Z,100122.23
2024-04-14T19:58:37.530Z,100116.36
2024-04-14T20:00:41.496Z,100108.31
2024-04-14T20:02:46.028Z,100117.79
2024-04-14T20:04:49.257Z,100114.80
2024-04-14T20:06:52.395Z,100110.73
2024-04-14T20:08:56.131Z,100104.43
2024-04-14T20:10:59.323Z,100094.77
2024-04-14T20:13:02.537Z,100091.59
2024-04-14T20:15:06.417Z,100096.36
2024-04-14T20:17:09.525Z,100095.91
2024-04-14T20:19:12.926Z,100094.15
2024-04-14T20:21:16.024Z,100091.62
2024-04-14T20:23:19.115Z,100091.44
2024-04-14T20:25:22.323Z,100085.60
2024-04-14T20:27:26.283Z,100084.98
2024-04-14T20:29:30.493Z,100077.99
2024-04-14T20:31:33.585Z,100074.74
2024-04-14T20:33:36.780Z,100074.87
2024-04-14T20:35:39.890Z,100072.07
2024-04-14T20:37:42.955Z,100070.25
2024-04-14T20:39:46.070Z,100069.22
2024-04-14T20:41:49.217Z,100066.41
2024-04-14T20:43:52.929Z,100063.36
2024-04-14T20:45:57.167Z,100064.80
2024-04-14T20:48:00.435Z,100063.48
2024-04-14T20:50:03.899Z,100059.98
2024-04-14T20:52:07.651Z,100056.02
2024-04-14T20:54:11.695Z,100050.15
2024-04-14T20:56:14.802Z,100048.09
2024-04-14T20:58:18.626Z,100044.34
2024-04-14T21:00:21.753Z,100034.06
2024-04-14T21:02:24.877Z,100029.94
2024-04-14T21:04:35.541Z,100025.15
2024-04-14T21:06:47.211Z,100026.09
2024-04-14T21:08:50.325Z,100025.16
2024-04-14T21:11:09.172Z,100031.12
2024-04-14T21:13:15.015Z,100031.93
2024-04-14T21:15:20.165Z,100028.31
2024-04-14T21:17:24.709Z,100024.38
2024-04-14T21:19:27.833Z,100023.88
2024-04-14T21:21:30.984Z,100019.23
2024-04-14T21:23:34.372Z,100018.08
2024-04-14T21:25:38.028Z,100012.93
2024-04-14T21:27:41.171Z,100012.73
2024-04-14T21:29:44.264Z,100015.40
2024-04-14T21:31:47.535Z,100018.44
2024-04-14T21:33:50.833Z,100021.12
2024-04-14T21:35:54.612Z,100018.49
2024-04-14T21:37:57.723Z,100016.86
2024-04-14T21:40:00.863Z,100014.45
2024-04-14T21:42:07.241Z,100006.80
2024-04-14T21:44:10.366Z,100013.00
2024-04-14T21:46:13.505Z,100013.19
2024-04-14T21:48:16.772Z,100009.75
2024-04-14T21:50:19.996Z,100011.83
2024-04-14T21:52:23.081Z,100012.25
2024-04-14T21:54:26.126Z,100006.83
2024-04-14T21:56:32.976Z,100001.91
2024-04-14T21:58:37.664Z,99997.59
2024-04-14T22:00:40.897Z,99995.38
2024-04-14T22:02:44.050Z,99990.04
2024-04-14T22:04:48.669Z,99994.48
2024-04-14T22:06:51.825Z,99990.91
2024-04-14T22:08:54.904Z,99990.43
2024-04-14T22:11:00.205Z,99989.52
2024-04-14T22:13:03.833Z,99984.48
2024-04-14T22:15:07.414Z,99981.90
2024-04-14T22:17:12.047Z,99982.40
2024-04-14T22:19:19.227Z,99981.79
2024-04-14T22:21:22.369Z,99981.41
2024-04-14T22:23:25.553Z,99981.99
2024-04-14T22:25:28.683Z,99975.18
2024-04-14T22:27:32.166Z,99970.30
2024-04-14T22:29:35.229Z,99969.24
2024-04-14T22:31:38.393Z,99973.89
2024-04-14T22:33:44.141Z,99981.71
2024-04-14T22:35:47.722Z,99980.80
2024-04-14T22:37:50.853Z,99974.47
2024-04-14T22:39:53.989Z,99971.47
2024-04-14T22:41:57.213Z,99970.66
2024-04-14T22:44:00.337Z,99971.01
2024-04-14T22:46:03.524Z,99968.47
2024-04-14T22:48:06.947Z,99966.35
2024-04-14T22:50:10.698Z,99969.27
2024-04-14T22:52:13.828Z,99969.02
2024-04-14T22:54:17.553Z,99973.78
2024-04-14T22:56:21.062Z,99973.91
2024-04-14T22:58:24.485Z,99973.89
2024-04-14T23:00:27.633Z,99977.63
2024-04-14T23:02:30.774Z,99977.35
2024-04-14T23:04:33.994Z,99978.03
2024-04-14T23:06:37.111Z,99975.88
2024-04-14T23:08:40.829Z,99978.20
2024-04-14T23:10:43.983Z,99975.06
2024-04-14T23:12:47.186Z,99972.80
2024-04-14T23:14:50.410Z,99974.64
2024-04-14T23:16:53.497Z,99974.71
2024-04-14T23:19:00.055Z,99978.74
2024-04-14T23:21:03.264Z,99978.55
2024-04-14T23:23:06.368Z,99971.74
2024-04-14T23:25:09.528Z,99969.24
2024-04-14T23:27:12.881Z,99970.43
2024-04-14T23:29:16.001Z,99971.88
2024-04-14T23:31:20.211Z,99970.07
2024-04-14T23:33:23.410Z,99963.79
2024-04-14T23:35:26.536Z,99966.24